createdAt,value
2018-11-27T00:01:09.351Z,1.20
2018-11-27T00:03:44.323Z,1.37
2018-11-27T00:06:13.787Z,1.32
2018-11-27T00:08:44.509Z,1.27
2018-11-27T00:11:14.839Z,1.37
2018-11-27T00:13:44.879Z,1.37
2018-11-27T00:16:14.215Z,1.28
2018-11-27T00:18:43.918Z,1.43
2018-11-27T00:21:13.304Z,1.34
2018-11-27T00:23:42.851Z,1.47
2018-11-27T00:26:12.871Z,1.32
2018-11-27T00:28:42.146Z,1.24
2018-11-27T00:31:11.434Z,1.40
2018-11-27T00:33:41.111Z,1.39
2018-11-27T00:36:10.489Z,1.34
2018-11-27T00:38:39.834Z,1.29
2018-11-27T00:41:09.726Z,1.37
2018-11-27T00:43:39.179Z,1.32
2018-11-27T00:46:10.680Z,1.29
2018-11-27T00:48:40.889Z,1.30
2018-11-27T00:51:11.318Z,1.28
2018-11-27T00:53:41.451Z,1.27
2018-11-27T00:56:11.311Z,1.26
2018-11-27T00:58:41.170Z,1.27
2018-11-27T01:01:10.777Z,1.26
2018-11-27T01:03:40.149Z,1.29
2018-11-27T01:06:10.810Z,1.40
2018-11-27T01:08:40.271Z,1.36
2018-11-27T01:11:09.897Z,1.43
2018-11-27T01:13:40.097Z,1.30
2018-11-27T01:16:09.494Z,1.26
2018-11-27T01:18:39.030Z,1.19
2018-11-27T01:21:10.149Z,1.26
2018-11-27T01:23:39.512Z,1.28
2018-11-27T01:26:09.207Z,1.29
2018-11-27T01:28:39.248Z,1.24
2018-11-27T01:31:08.625Z,1.23
2018-11-27T01:33:38.014Z,1.09
2018-11-27T01:38:16.491Z,1.08
2018-11-27T01:40:46.005Z,1.20
2018-11-27T01:43:16.065Z,1.12
2018-11-27T01:45:45.740Z,1.02
2018-11-27T01:48:17.193Z,1.14
2018-11-27T01:50:46.714Z,1.16
2018-11-27T01:53:16.142Z,0.99
2018-11-27T01:55:46.487Z,1.01
2018-11-27T01:58:15.931Z,0.98
2018-11-27T02:00:46.020Z,1.08
2018-11-27T02:03:21.587Z,0.99
2018-11-27T02:05:51.036Z,1.03
2018-11-27T02:08:20.805Z,0.94
2018-11-27T02:10:50.473Z,0.92
2018-11-27T02:13:20.851Z,0.90
2018-11-27T02:15:50.993Z,0.82
2018-11-27T02:18:20.676Z,0.90
2018-11-27T02:20:50.144Z,0.96
2018-11-27T02:23:20.740Z,0.93
2018-11-27T02:25:50.315Z,0.91
2018-11-27T02:28:20.463Z,0.97
2018-11-27T02:30:50.271Z,1.04
2018-11-27T02:33:19.690Z,0.94
2018-11-27T02:35:49.628Z,0.95
2018-11-27T02:38:21.263Z,0.90
2018-11-27T02:40:50.676Z,1.09
2018-11-27T02:43:27.606Z,1.04
2018-11-27T02:45:58.439Z,0.92
2018-11-27T02:48:27.826Z,0.93
2018-11-27T02:50:57.174Z,1.10
2018-11-27T02:53:26.543Z,1.02
2018-11-27T02:55:56.846Z,1.01
2018-11-27T02:58:26.327Z,1.21
2018-11-27T03:00:55.595Z,1.28
2018-11-27T03:03:34.055Z,1.07
2018-11-27T03:06:03.720Z,1.08
2018-11-27T03:08:33.631Z,0.82
2018-11-27T03:11:03.746Z,0.88
2018-11-27T03:13:33.190Z,0.94
2018-11-27T03:16:02.660Z,0.96
2018-11-27T03:18:33.222Z,0.88
2018-11-27T03:21:03.048Z,0.90
2018-11-27T03:23:32.652Z,0.80
2018-11-27T03:26:02.112Z,0.80
2018-11-27T03:28:31.553Z,0.79
2018-11-27T03:31:00.955Z,0.79
2018-11-27T03:33:30.407Z,0.68
2018-11-27T03:36:00.026Z,0.84
2018-11-27T03:38:30.964Z,0.81
2018-11-27T03:41:00.610Z,0.77
2018-11-27T03:43:30.606Z,0.80
2018-11-27T03:46:00.397Z,0.71
2018-11-27T03:48:30.994Z,0.72
2018-11-27T03:51:01.049Z,0.63
2018-11-27T03:53:31.580Z,0.58
2018-11-27T03:56:00.936Z,0.71
2018-11-27T03:58:30.293Z,0.62
2018-11-27T04:01:00.264Z,0.55
2018-11-27T04:03:31.440Z,0.64
2018-11-27T04:06:01.500Z,0.56
2018-11-27T04:08:30.912Z,0.60
2018-11-27T04:11:00.283Z,0.49
2018-11-27T04:13:30.490Z,0.48
2018-11-27T04:16:00.823Z,0.48
2018-11-27T04:18:31.250Z,0.50
2018-11-27T04:21:00.637Z,0.49
2018-11-27T04:23:30.384Z,0.51
2018-11-27T04:26:01.502Z,0.41
2018-11-27T04:28:30.961Z,0.48
2018-11-27T04:31:00.403Z,0.34
2018-11-27T04:33:29.864Z,0.31
2018-11-27T04:35:59.407Z,0.38
2018-11-27T04:38:28.725Z,0.36
2018-11-27T04:40:58.215Z,0.37
2018-11-27T04:43:27.609Z,0.42
2018-11-27T04:45:59.363Z,0.31
2018-11-27T04:48:30.311Z,0.24
2018-11-27T04:51:00.937Z,0.20
2018-11-27T04:53:30.399Z,0.11
2018-11-27T04:56:00.066Z,0.22
2018-11-27T04:58:29.516Z,0.31
2018-11-27T05:00:58.953Z,0.13
2018-11-27T05:03:28.474Z,0.04
2018-11-27T05:05:58.192Z,0.15
2018-11-27T05:08:27.886Z,0.15
2018-11-27T05:10:57.381Z,0.04
2018-11-27T05:13:27.974Z,0.10
2018-11-27T05:15:57.588Z,0.08
2018-11-27T05:18:28.064Z,0.05
2018-11-27T05:20:57.659Z,0.06
2018-11-27T05:23:28.606Z,0.01
2018-11-27T05:25:58.088Z,-0.02
2018-11-27T05:28:27.601Z,0.00
2018-11-27T05:30:57.892Z,-0.04
2018-11-27T05:33:27.252Z,-0.16
2018-11-27T05:35:57.174Z,-0.18
2018-11-27T05:38:27.297Z,-0.25
2018-11-27T05:40:58.094Z,-0.11
2018-11-27T05:43:29.116Z,-0.23
2018-11-27T05:45:58.530Z,-0.22
2018-11-27T05:49:57.052Z,-0.24
2018-11-27T05:52:27.389Z,-0.10
2018-11-27T05:54:56.943Z,-0.29
2018-11-27T05:57:26.598Z,-0.26
2018-11-27T05:59:56.251Z,-0.21
2018-11-27T06:02:25.887Z,-0.32
2018-11-27T06:04:55.593Z,-0.39
2018-11-27T06:07:25.217Z,-0.34
2018-11-27T06:09:55.738Z,-0.28
2018-11-27T06:12:25.262Z,-0.28
2018-11-27T06:14:55.822Z,-0.31
2018-11-27T06:17:25.351Z,-0.36
2018-11-27T06:19:54.768Z,-0.43
2018-11-27T06:22:24.171Z,-0.32
2018-11-27T06:24:53.805Z,-0.36
2018-11-27T06:27:24.388Z,-0.38
2018-11-27T06:29:54.254Z,-0.34
2018-11-27T06:32:28.765Z,-0.19
2018-11-27T06:34:58.150Z,-0.38
2018-11-27T06:37:37.766Z,-0.16
2018-11-27T06:41:41.135Z,-0.39
2018-11-27T06:44:11.565Z,-0.50
2018-11-27T06:46:47.745Z,-0.49
2018-11-27T06:49:18.154Z,-0.55
2018-11-27T06:51:52.262Z,-0.54
2018-11-27T06:54:33.245Z,-0.56
2018-11-27T07:00:27.349Z,-0.57
2018-11-27T07:06:16.790Z,-0.80
2018-11-27T07:08:47.343Z,-0.69
2018-11-27T07:11:21.291Z,-0.77
2018-11-27T07:13:53.003Z,-0.63
2018-11-27T07:16:23.408Z,-0.93
2018-11-27T07:18:52.698Z,-0.76
2018-11-27T07:21:22.476Z,-0.88
2018-11-27T07:23:53.859Z,-0.79
2018-11-27T07:26:24.707Z,-0.81
2018-11-27T07:28:55.241Z,-1.00
2018-11-27T07:31:24.887Z,-0.78
2018-11-27T07:33:54.492Z,-0.86
2018-11-27T07:36:24.829Z,-0.86
2018-11-27T07:38:54.408Z,-0.72
2018-11-27T07:41:23.880Z,-0.83
2018-11-27T07:47:06.151Z,-0.88
2018-11-27T07:49:35.754Z,-0.76
2018-11-27T07:52:05.374Z,-0.77
2018-11-27T07:54:34.954Z,-0.86
2018-11-27T07:57:04.907Z,-0.90
2018-11-27T07:59:34.465Z,-0.92
2018-11-27T08:02:03.907Z,-0.84
2018-11-27T08:04:33.631Z,-1.11
2018-11-27T08:22:43.687Z,-0.80
2018-11-27T08:25:15.254Z,-0.80
2018-11-27T08:27:45.950Z,-0.93
2018-11-27T08:30:20.391Z,-0.83
2018-11-27T08:32:50.505Z,-0.88
2018-11-27T08:35:25.801Z,-0.75
2018-11-27T08:37:57.511Z,-0.93
2018-11-27T08:40:46.040Z,-0.85
2018-11-27T08:43:15.887Z,-0.90
2018-11-27T08:45:46.148Z,-0.80
2018-11-27T08:48:16.726Z,-0.77
2018-11-27T08:50:46.216Z,-0.72
2018-11-27T08:53:15.659Z,-0.74
2018-11-27T08:55:46.022Z,-0.80
2018-11-27T08:58:17.430Z,-0.86
2018-11-27T09:01:45.680Z,-0.79
2018-11-27T09:04:15.106Z,-0.57
2018-11-27T09:06:44.837Z,-0.37
2018-11-27T09:09:14.262Z,-0.76
2018-11-27T09:13:08.847Z,-0.79
2018-11-27T09:15:39.293Z,-0.48
2018-11-27T09:18:19.710Z,-0.72
2018-11-27T09:20:49.762Z,-0.58
2018-11-27T09:26:42.189Z,-0.43
2018-11-27T09:29:12.382Z,-0.96
2018-11-27T09:31:42.632Z,-0.80
2018-11-27T09:34:12.312Z,-0.56
2018-11-27T09:36:41.724Z,-0.32
2018-11-27T09:39:14.319Z,-0.16
2018-11-27T09:41:43.838Z,-0.12
2018-11-27T09:44:14.808Z,-0.54
2018-11-27T09:49:49.443Z,-0.57
2018-11-27T09:52:19.732Z,-0.43
2018-11-27T09:54:50.872Z,-0.69
2018-11-27T09:57:21.668Z,-0.44
2018-11-27T09:59:51.252Z,-0.34
2018-11-27T10:02:22.461Z,-0.14
2018-11-27T10:04:52.998Z,-0.19
2018-11-27T10:07:22.699Z,-0.54
2018-11-27T10:09:53.617Z,-0.31
2018-11-27T10:12:23.459Z,-0.24
2018-11-27T10:14:53.027Z,-0.10
2018-11-27T10:17:22.472Z,0.62
2018-11-27T10:19:52.815Z,0.24
2018-11-27T10:22:22.503Z,0.24
2018-11-27T10:24:53.122Z,-0.04
2018-11-27T10:27:22.407Z,0.03
2018-11-27T10:29:51.905Z,0.34
2018-11-27T10:32:22.316Z,-0.02
2018-11-27T10:34:52.167Z,0.04
2018-11-27T10:37:21.701Z,0.41
2018-11-27T10:39:51.758Z,0.00
2018-11-27T10:42:30.209Z,-0.05
2018-11-27T10:44:58.654Z,0.34
2018-11-27T10:47:28.409Z,0.16
2018-11-27T10:50:15.834Z,0.10
2018-11-27T10:52:46.958Z,0.40
2018-11-27T10:55:18.987Z,0.21
2018-11-27T10:57:49.484Z,0.55
2018-11-27T11:00:28.049Z,0.64
2018-11-27T11:04:22.198Z,0.67
2018-11-27T11:08:17.554Z,0.58
2018-11-27T11:13:45.004Z,0.43
2018-11-27T11:16:14.324Z,0.74
2018-11-27T11:18:44.480Z,0.76
2018-11-27T11:21:14.250Z,0.37
2018-11-27T11:23:43.759Z,0.83
2018-11-27T11:26:13.648Z,1.10
2018-11-27T11:28:43.566Z,0.82
2018-11-27T11:31:13.036Z,0.81
2018-11-27T11:33:44.435Z,0.88
2018-11-27T11:36:13.861Z,1.20
2018-11-27T11:38:44.390Z,0.77
2018-11-27T11:41:14.978Z,1.03
2018-11-27T11:43:44.385Z,0.97
2018-11-27T11:46:13.964Z,0.87
2018-11-27T11:48:43.497Z,1.01
2018-11-27T11:51:13.261Z,0.86
2018-11-27T11:53:45.832Z,1.03
2018-11-27T11:56:15.252Z,1.15
2018-11-27T11:58:44.716Z,1.53
2018-11-27T12:01:26.503Z,1.16
2018-11-27T12:03:55.923Z,1.35
2018-11-27T12:06:25.746Z,1.06
2018-11-27T12:09:02.146Z,0.95
2018-11-27T12:11:41.758Z,1.20
2018-11-27T12:14:27.031Z,1.20
2018-11-27T12:17:10.484Z,1.12
2018-11-27T12:19:42.666Z,1.18
2018-11-27T12:22:13.059Z,0.85
2018-11-27T12:24:42.535Z,1.17
2018-11-27T12:27:12.236Z,1.16
2018-11-27T12:29:41.736Z,0.85
2018-11-27T12:32:11.267Z,0.71
2018-11-27T12:34:42.390Z,1.12
2018-11-27T12:39:58.950Z,1.32
2018-11-27T12:42:28.877Z,1.10
2018-11-27T12:44:59.507Z,1.13
2018-11-27T12:47:36.750Z,1.35
2018-11-27T12:50:11.143Z,0.90
2018-11-27T12:52:40.855Z,1.02
2018-11-27T12:55:27.226Z,0.86
2018-11-27T12:58:01.917Z,1.08
2018-11-27T13:00:32.759Z,0.94
2018-11-27T13:03:04.096Z,0.90
2018-11-27T13:05:38.430Z,0.96
2018-11-27T13:08:14.751Z,1.03
2018-11-27T13:10:44.774Z,0.93
2018-11-27T13:13:16.629Z,1.05
2018-11-27T13:15:47.085Z,0.86
2018-11-27T13:18:18.209Z,0.88
2018-11-27T13:20:48.217Z,0.93
2018-11-27T13:23:19.816Z,0.84
2018-11-27T13:25:49.946Z,0.55
2018-11-27T13:28:20.306Z,0.78
2018-11-27T13:31:07.446Z,0.58
2018-11-27T13:33:59.487Z,0.84
2018-11-27T13:36:29.727Z,0.51
2018-11-27T13:39:11.126Z,0.52
2018-11-27T13:41:41.786Z,0.46
2018-11-27T13:44:11.621Z,0.41
2018-11-27T13:46:41.897Z,0.56
2018-11-27T13:49:12.849Z,0.34
2018-11-27T13:51:42.493Z,0.23
2018-11-27T13:54:12.281Z,0.43
2018-11-27T13:56:42.288Z,0.48
2018-11-27T13:59:13.798Z,0.51
2018-11-27T14:01:46.319Z,0.42
2018-11-27T14:04:15.550Z,0.48
2018-11-27T14:06:45.033Z,0.57
2018-11-27T14:09:16.277Z,0.51
2018-11-27T14:11:45.758Z,0.45
2018-11-27T14:14:15.341Z,0.52
2018-11-27T14:16:45.324Z,0.32
2018-11-27T14:19:22.028Z,0.34
2018-11-27T14:21:52.306Z,0.33
2018-11-27T14:24:22.332Z,0.15
2018-11-27T14:26:53.495Z,0.23
2018-11-27T14:29:24.333Z,0.37
2018-11-27T14:31:55.172Z,0.13
2018-11-27T14:34:24.650Z,0.52
2018-11-27T14:36:54.276Z,0.06
2018-11-27T14:39:29.003Z,0.07
2018-11-27T14:41:58.997Z,0.12
2018-11-27T14:44:28.916Z,0.12
2018-11-27T14:47:00.155Z,0.00
2018-11-27T14:49:32.487Z,-0.02
2018-11-27T14:52:02.956Z,-0.13
2018-11-27T14:54:32.705Z,-0.14
2018-11-27T14:57:05.892Z,-0.05
2018-11-27T14:59:37.164Z,-0.17
2018-11-27T15:02:22.201Z,-0.21
2018-11-27T15:04:51.966Z,-0.22
2018-11-27T15:07:22.740Z,-0.29
2018-11-27T15:09:52.503Z,-0.30
2018-11-27T15:12:22.584Z,-0.28
2018-11-27T15:14:52.744Z,-0.35
2018-11-27T15:17:23.374Z,-0.30
2018-11-27T15:19:53.389Z,-0.32
2018-11-27T15:22:23.736Z,-0.32
2018-11-27T15:24:53.819Z,-0.35
2018-11-27T15:27:24.000Z,-0.37
2018-11-27T15:29:54.334Z,-0.36
2018-11-27T15:32:24.335Z,-0.38
2018-11-27T15:34:55.025Z,-0.33
2018-11-27T15:37:25.294Z,-0.34
2018-11-27T15:40:02.073Z,-0.37
2018-11-27T15:42:32.050Z,-0.24
2018-11-27T15:45:15.120Z,-0.23
2018-11-27T15:47:46.194Z,-0.29
2018-11-27T15:50:17.543Z,-0.31
2018-11-27T15:52:47.561Z,-0.18
2018-11-27T15:55:23.114Z,-0.32
2018-11-27T15:57:54.829Z,-0.22
2018-11-27T16:00:25.458Z,-0.36
2018-11-27T16:02:55.302Z,-0.34
2018-11-27T16:05:25.457Z,-0.39
2018-11-27T16:07:55.025Z,-0.36
2018-11-27T16:10:24.664Z,-0.40
2018-11-27T16:12:54.310Z,-0.41
2018-11-27T16:15:23.947Z,-0.43
2018-11-27T16:17:54.790Z,-0.50
2018-11-27T16:20:24.575Z,-0.49
2018-11-27T16:22:54.209Z,-0.45
2018-11-27T16:25:25.884Z,-0.48
2018-11-27T16:27:56.396Z,-0.45
2018-11-27T16:30:27.602Z,-0.24
2018-11-27T16:32:57.274Z,-0.11
2018-11-27T16:35:26.882Z,-0.29
2018-11-27T16:37:59.491Z,-0.32
2018-11-27T16:40:35.661Z,-0.30
2018-11-27T16:43:10.199Z,-0.23
2018-11-27T16:45:40.501Z,-0.40
2018-11-27T16:48:11.123Z,-0.57
2018-11-27T16:50:41.759Z,-0.85
2018-11-27T16:53:12.363Z,-0.61
2018-11-27T16:55:41.997Z,-0.62
2018-11-27T16:58:11.936Z,-0.83
2018-11-27T17:00:41.564Z,-0.92
2018-11-27T17:03:11.990Z,-0.82
2018-11-27T17:05:44.237Z,-1.08
2018-11-27T17:08:14.086Z,-0.79
2018-11-27T17:10:44.863Z,-0.93
2018-11-27T17:13:15.876Z,-1.09
2018-11-27T17:15:45.490Z,-1.12
2018-11-27T17:18:16.762Z,-1.06
2018-11-27T17:20:47.190Z,-1.02
2018-11-27T17:23:18.381Z,-1.08
2018-11-27T17:25:48.546Z,-1.36
2018-11-27T17:28:20.997Z,-1.65
2018-11-27T17:30:54.123Z,-1.16
2018-11-27T17:33:28.396Z,-0.92
2018-11-27T17:36:02.772Z,-1.03
2018-11-27T17:38:32.706Z,-1.07
2018-11-27T17:41:02.266Z,-0.92
2018-11-27T17:43:36.769Z,-0.92
2018-11-27T17:46:07.422Z,-1.04
2018-11-27T17:48:37.228Z,-1.22
2018-11-27T17:51:07.835Z,-1.22
2018-11-27T17:53:38.526Z,-1.14
2018-11-27T17:56:08.324Z,-1.16
2018-11-27T17:58:38.047Z,-1.19
2018-11-27T18:01:07.915Z,-1.13
2018-11-27T18:03:37.548Z,-1.17
2018-11-27T18:06:07.754Z,-1.52
2018-11-27T18:08:37.500Z,-1.40
2018-11-27T18:11:07.564Z,-1.27
2018-11-27T18:13:37.665Z,-1.34
2018-11-27T18:16:07.345Z,-1.73
2018-11-27T18:18:36.925Z,-1.69
2018-11-27T18:21:07.497Z,-1.42
2018-11-27T18:23:37.746Z,-1.23
2018-11-27T18:26:08.067Z,-1.27
2018-11-27T18:28:37.949Z,-1.33
2018-11-27T18:31:21.536Z,-1.29
2018-11-27T18:33:51.096Z,-1.29
2018-11-27T18:36:25.722Z,-1.33
2018-11-27T18:38:53.203Z,-1.33
2018-11-27T18:41:24.592Z,-1.34
2018-11-27T18:43:54.246Z,-1.31
2018-11-27T18:46:23.847Z,-1.34
2018-11-27T18:48:54.558Z,-1.57
2018-11-27T18:51:23.907Z,-1.68
2018-11-27T18:53:55.045Z,-1.51
2018-11-27T18:56:23.839Z,-1.48
2018-11-27T18:58:53.549Z,-1.42
2018-11-27T19:01:23.375Z,-1.53
2018-11-27T19:03:53.091Z,-1.59
2018-11-27T19:06:23.001Z,-1.57
2018-11-27T19:08:52.684Z,-1.55
2018-11-27T19:14:08.896Z,-2.00
2018-11-27T19:19:27.900Z,-2.12
2018-11-27T19:21:57.707Z,-1.94
2018-11-27T19:24:27.436Z,-1.67
2018-11-27T19:26:57.225Z,-1.83
2018-11-27T19:29:27.403Z,-2.17
2018-11-27T19:31:57.287Z,-2.25
2018-11-27T19:37:02.057Z,-1.77
2018-11-27T19:39:32.839Z,-1.75
2018-11-27T19:42:06.625Z,-1.85
2018-11-27T19:44:38.226Z,-2.11
2018-11-27T19:47:07.924Z,-1.80
2018-11-27T19:49:37.521Z,-2.31
2018-11-27T19:52:07.227Z,-2.55
2018-11-27T19:54:37.143Z,-2.48
2018-11-27T19:57:07.495Z,-2.43
2018-11-27T19:59:37.046Z,-2.17
2018-11-27T20:02:08.179Z,-1.95
2018-11-27T20:04:37.946Z,-2.04
2018-11-27T20:07:08.227Z,-2.09
2018-11-27T20:09:39.519Z,-2.42
2018-11-27T20:12:10.148Z,-2.45
2018-11-27T20:14:40.152Z,-2.45
2018-11-27T20:17:10.126Z,-2.40
2018-11-27T20:19:39.708Z,-2.46
2018-11-27T20:22:10.414Z,-2.44
2018-11-27T20:24:41.262Z,-2.25
2018-11-27T20:27:11.256Z,-2.07
2018-11-27T20:29:40.965Z,-2.33
2018-11-27T20:32:13.018Z,-2.50
2018-11-27T20:34:42.812Z,-2.60
2018-11-27T20:37:12.902Z,-2.52
2018-11-27T20:39:43.732Z,-2.58
2018-11-27T20:42:14.081Z,-2.66
2018-11-27T20:44:44.637Z,-2.71
2018-11-27T20:47:14.279Z,-2.68
2018-11-27T20:49:43.938Z,-2.83
2018-11-27T20:52:15.213Z,-2.76
2018-11-27T20:54:45.856Z,-2.84
2018-11-27T20:57:17.825Z,-2.98
2018-11-27T20:59:47.507Z,-3.00
2018-11-27T21:02:17.106Z,-3.03
2018-11-27T21:04:48.617Z,-2.97
2018-11-27T21:10:15.581Z,-2.94
2018-11-27T21:12:45.754Z,-2.89
2018-11-27T21:15:20.637Z,-3.00
2018-11-27T21:17:50.736Z,-3.00
2018-11-27T21:20:20.941Z,-2.64
2018-11-27T21:22:50.847Z,-2.76
2018-11-27T21:25:21.785Z,-2.80
2018-11-27T21:27:58.185Z,-2.88
2018-11-27T21:30:30.336Z,-2.87
2018-11-27T21:33:04.120Z,-2.94
2018-11-27T21:35:35.668Z,-2.94
2018-11-27T21:38:06.946Z,-2.81
2018-11-27T21:40:37.396Z,-2.76
2018-11-27T21:43:09.037Z,-2.75
2018-11-27T21:45:39.443Z,-2.87
2018-11-27T21:48:10.266Z,-2.76
2018-11-27T21:50:40.513Z,-2.84
2018-11-27T21:53:10.386Z,-2.76
2018-11-27T21:55:41.427Z,-3.04
2018-11-27T21:58:11.112Z,-3.34
2018-11-27T22:00:43.401Z,-3.48
2018-11-27T22:03:13.603Z,-3.55
2018-11-27T22:05:43.269Z,-3.48
2018-11-27T22:08:12.891Z,-3.70
2018-11-27T22:10:42.773Z,-3.76
2018-11-27T22:13:14.043Z,-3.73
2018-11-27T22:15:45.359Z,-3.58
2018-11-27T22:18:15.169Z,-3.56
2018-11-27T22:20:46.401Z,-3.60
2018-11-27T22:23:16.190Z,-3.20
2018-11-27T22:25:46.646Z,-3.45
2018-11-27T22:28:18.211Z,-3.68
2018-11-27T22:30:48.015Z,-3.70
2018-11-27T22:33:18.539Z,-3.80
2018-11-27T22:35:49.143Z,-3.74
2018-11-27T22:38:21.307Z,-3.80
2018-11-27T22:40:51.575Z,-3.87
2018-11-27T22:43:21.313Z,-3.76
2018-11-27T22:45:51.075Z,-3.94
2018-11-27T22:48:20.973Z,-3.91
2018-11-27T22:50:52.091Z,-3.90
2018-11-27T22:53:21.867Z,-4.07
2018-11-27T22:55:51.922Z,-4.08
2018-11-27T22:58:25.101Z,-4.06
2018-11-27T23:00:56.042Z,-3.92
2018-11-27T23:03:26.686Z,-3.97
2018-11-27T23:05:57.025Z,-3.84
2018-11-27T23:08:26.812Z,-3.73
2018-11-27T23:13:32.275Z,-3.74
2018-11-27T23:16:02.085Z,-3.91
2018-11-27T23:18:31.746Z,-3.91
2018-11-27T23:21:01.429Z,-4.00
2018-11-27T23:23:31.553Z,-4.09
2018-11-27T23:26:01.792Z,-4.28
2018-11-27T23:28:33.345Z,-4.37
2018-11-27T23:31:05.022Z,-4.28
2018-11-27T23:33:34.466Z,-4.24
2018-11-27T23:36:04.770Z,-4.42
2018-11-27T23:38:34.574Z,-4.36
2018-11-27T23:41:04.278Z,-4.40
2018-11-27T23:43:36.189Z,-4.22
2018-11-27T23:46:06.044Z,-4.06
2018-11-27T23:48:37.124Z,-3.66
2018-11-27T23:51:07.383Z,-3.65
2018-11-27T23:53:38.054Z,-4.18
2018-11-27T23:56:08.496Z,-4.24
2018-11-27T23:58:38.342Z,-4.27
